createdAt,value
2019-04-25T00:01:09.087Z,1.97
2019-04-25T00:03:40.419Z,1.37
2019-04-25T00:06:12.164Z,1.00
2019-04-25T00:08:43.076Z,1.23
2019-04-25T00:11:13.244Z,1.30
2019-04-25T00:13:43.116Z,1.10
2019-04-25T00:16:15.391Z,0.80
2019-04-25T00:18:45.012Z,0.90
2019-04-25T00:21:27.469Z,1.20
2019-04-25T00:24:02.664Z,1.23
2019-04-25T00:26:40.192Z,1.00
2019-04-25T00:29:10.597Z,1.30
2019-04-25T00:31:40.993Z,1.30
2019-04-25T00:34:12.077Z,1.20
2019-04-25T00:36:43.465Z,1.17
2019-04-25T00:39:14.666Z,1.17
2019-04-25T00:41:46.150Z,1.10
2019-04-25T00:44:15.640Z,1.93
2019-04-25T00:46:48.759Z,1.07
2019-04-25T00:49:16.424Z,1.40
2019-04-25T00:51:46.242Z,1.70
2019-04-25T00:54:16.156Z,1.23
2019-04-25T00:56:47.909Z,1.30
2019-04-25T00:59:31.943Z,1.83
2019-04-25T01:02:26.204Z,2.13
2019-04-25T01:04:56.164Z,1.70
2019-04-25T01:07:25.738Z,1.27
2019-04-25T01:09:55.592Z,1.80
2019-04-25T01:12:25.158Z,1.60
2019-04-25T01:14:54.784Z,1.57
2019-04-25T01:17:24.615Z,1.43
2019-04-25T01:19:56.941Z,2.50
2019-04-25T01:22:25.611Z,1.60
2019-04-25T01:24:56.006Z,1.40
2019-04-25T01:27:25.882Z,1.20
2019-04-25T01:29:56.349Z,1.83
2019-04-25T01:32:37.734Z,2.10
2019-04-25T01:35:20.944Z,1.30
2019-04-25T01:37:57.439Z,2.20
2019-04-25T01:40:44.642Z,1.30
2019-04-25T01:43:35.336Z,2.73
2019-04-25T01:46:04.880Z,1.60
2019-04-25T01:48:34.637Z,1.40
2019-04-25T01:51:04.494Z,1.43
2019-04-25T01:53:35.604Z,1.50
2019-04-25T01:56:07.571Z,1.60
2019-04-25T01:58:36.644Z,1.47
2019-04-25T02:01:06.223Z,1.47
2019-04-25T02:03:35.968Z,1.70
2019-04-25T02:06:05.776Z,1.70
2019-04-25T02:08:35.375Z,2.27
2019-04-25T02:11:34.004Z,1.60
2019-04-25T02:14:05.213Z,1.60
2019-04-25T02:16:35.434Z,1.40
2019-04-25T02:19:05.940Z,1.43
2019-04-25T02:21:35.632Z,1.47
2019-04-25T02:24:05.682Z,1.90
2019-04-25T02:26:35.612Z,1.40
2019-04-25T02:29:05.280Z,2.03
2019-04-25T02:31:35.095Z,1.50
2019-04-25T02:34:08.391Z,1.97
2019-04-25T02:36:35.918Z,1.30
2019-04-25T02:39:11.267Z,1.50
2019-04-25T02:41:40.839Z,1.90
2019-04-25T02:44:10.504Z,1.93
2019-04-25T02:47:00.699Z,2.43
2019-04-25T02:49:47.604Z,2.30
2019-04-25T02:52:36.104Z,2.30
2019-04-25T02:55:10.532Z,1.63
2019-04-25T02:57:37.743Z,2.20
2019-04-25T03:00:08.832Z,2.13
2019-04-25T03:02:38.620Z,2.17
2019-04-25T03:05:09.935Z,2.00
2019-04-25T03:07:39.840Z,2.47
2019-04-25T03:10:11.698Z,2.17
2019-04-25T03:12:41.327Z,2.20
2019-04-25T03:15:11.014Z,2.23
2019-04-25T03:17:40.649Z,2.30
2019-04-25T03:20:41.195Z,2.57
2019-04-25T03:23:46.289Z,2.33
2019-04-25T03:26:15.924Z,1.93
2019-04-25T03:28:45.479Z,2.50
2019-04-25T03:31:21.883Z,2.30
2019-04-25T03:33:46.486Z,1.80
2019-04-25T03:36:17.000Z,2.37
2019-04-25T03:38:46.984Z,2.87
2019-04-25T03:41:16.544Z,1.97
2019-04-25T03:43:46.351Z,2.23
2019-04-25T03:46:15.940Z,2.17
2019-04-25T03:48:45.496Z,1.87
2019-04-25T03:51:15.663Z,1.83
2019-04-25T03:53:45.537Z,2.13
2019-04-25T03:56:15.104Z,1.97
2019-04-25T03:58:44.658Z,1.70
2019-04-25T04:01:15.630Z,2.70
2019-04-25T04:03:45.398Z,2.03
2019-04-25T04:06:15.670Z,1.87
2019-04-25T04:08:45.303Z,2.20
2019-04-25T04:11:15.687Z,2.93
2019-04-25T04:13:45.475Z,2.13
2019-04-25T04:16:17.484Z,2.23
2019-04-25T04:18:49.049Z,2.53
2019-04-25T04:21:36.043Z,2.43
2019-04-25T04:24:39.754Z,2.20
2019-04-25T04:27:12.112Z,2.70
2019-04-25T04:29:43.127Z,1.93
2019-04-25T04:32:14.398Z,1.80
2019-04-25T04:34:45.570Z,1.90
2019-04-25T04:37:16.214Z,2.00
2019-04-25T04:39:45.956Z,2.70
2019-04-25T04:42:16.087Z,1.90
2019-04-25T04:44:45.947Z,2.07
2019-04-25T04:47:16.610Z,2.20
2019-04-25T04:49:46.563Z,2.67
2019-04-25T04:52:16.954Z,2.77
2019-04-25T04:54:46.738Z,2.83
2019-04-25T04:57:26.313Z,2.63
2019-04-25T04:59:47.501Z,3.97
2019-04-25T05:02:35.979Z,3.73
2019-04-25T05:05:23.475Z,4.40
2019-04-25T05:08:00.732Z,3.40
2019-04-25T05:10:30.301Z,3.80
2019-04-25T05:13:00.001Z,3.90
2019-04-25T05:15:29.647Z,4.27
2019-04-25T05:18:32.944Z,3.90
2019-04-25T05:20:48.161Z,4.43
2019-04-25T05:23:17.714Z,4.90
2019-04-25T05:25:47.301Z,3.83
2019-04-25T05:28:18.207Z,4.23
2019-04-25T05:31:10.068Z,3.67
2019-04-25T05:33:39.639Z,3.77
2019-04-25T05:36:09.188Z,4.47
2019-04-25T05:38:38.760Z,3.97
2019-04-25T05:41:16.124Z,5.10
2019-04-25T05:43:46.720Z,5.23
2019-04-25T05:46:16.885Z,5.50
2019-04-25T05:48:46.755Z,7.20
2019-04-25T05:51:17.324Z,6.73
2019-04-25T05:53:47.230Z,6.90
2019-04-25T05:56:16.943Z,6.70
2019-04-25T05:58:46.861Z,8.73
2019-04-25T06:01:17.199Z,9.60
2019-04-25T06:03:47.216Z,10.60
2019-04-25T06:06:17.572Z,9.13
2019-04-25T06:08:54.217Z,9.87
2019-04-25T06:11:48.881Z,8.20
2019-04-25T06:14:19.941Z,7.27
2019-04-25T06:16:50.639Z,4.80
2019-04-25T06:19:44.932Z,5.63
2019-04-25T06:22:19.949Z,3.50
2019-04-25T06:24:59.088Z,2.90
2019-04-25T06:27:38.830Z,3.67
2019-04-25T06:30:20.497Z,3.80
2019-04-25T06:32:50.296Z,3.60
2019-04-25T06:35:20.327Z,3.57
2019-04-25T06:37:51.007Z,4.97
2019-04-25T06:40:22.053Z,4.87
2019-04-25T06:42:53.557Z,5.00
2019-04-25T06:45:54.054Z,4.60
2019-04-25T06:48:33.246Z,3.93
2019-04-25T06:51:03.510Z,3.90
2019-04-25T06:53:34.603Z,4.33
2019-04-25T06:56:04.795Z,4.20
2019-04-25T06:58:34.995Z,4.63
2019-04-25T07:01:04.541Z,4.80
2019-04-25T07:03:35.630Z,5.13
2019-04-25T07:06:05.761Z,4.97
2019-04-25T07:08:35.527Z,4.87
2019-04-25T07:11:05.515Z,5.20
2019-04-25T07:13:38.552Z,5.13
2019-04-25T07:16:06.364Z,5.97
2019-04-25T07:18:37.337Z,5.90
2019-04-25T07:21:07.151Z,6.80
2019-04-25T07:23:36.735Z,5.43
2019-04-25T07:26:13.552Z,5.30
2019-04-25T07:29:01.333Z,5.70
2019-04-25T07:31:38.766Z,4.90
2019-04-25T07:34:19.876Z,5.17
2019-04-25T07:36:49.414Z,5.03
2019-04-25T07:39:18.984Z,5.80
2019-04-25T07:41:48.537Z,5.30
2019-04-25T07:44:20.751Z,5.30
2019-04-25T07:46:49.275Z,5.43
2019-04-25T07:49:18.863Z,5.33
2019-04-25T07:51:48.411Z,6.37
2019-04-25T07:54:17.952Z,7.17
2019-04-25T07:56:47.563Z,7.40
2019-04-25T07:59:17.200Z,7.73
2019-04-25T08:01:46.747Z,7.83
2019-04-25T08:04:16.333Z,7.70
2019-04-25T08:06:45.883Z,8.63
2019-04-25T08:09:15.764Z,8.63
2019-04-25T08:11:45.503Z,9.37
2019-04-25T08:14:35.057Z,8.63
2019-04-25T08:17:05.676Z,7.30
2019-04-25T08:19:35.637Z,5.53
2019-04-25T08:22:05.775Z,4.60
2019-04-25T08:24:37.304Z,3.97
2019-04-25T08:27:07.121Z,5.53
2019-04-25T08:29:39.218Z,5.80
2019-04-25T08:32:08.078Z,5.30
2019-04-25T08:34:38.545Z,6.37
2019-04-25T08:37:18.111Z,5.33
2019-04-25T08:39:39.853Z,4.13
2019-04-25T08:42:09.383Z,4.47
2019-04-25T08:44:39.246Z,4.37
2019-04-25T08:47:08.899Z,4.33
2019-04-25T08:49:53.837Z,4.50
2019-04-25T08:52:24.927Z,4.20
2019-04-25T08:55:04.200Z,4.60
2019-04-25T08:57:51.187Z,4.43
2019-04-25T09:01:00.920Z,6.10
2019-04-25T09:03:34.645Z,3.30
2019-04-25T09:06:04.490Z,1.90
2019-04-25T09:08:35.990Z,1.57
2019-04-25T09:11:05.254Z,1.37
2019-04-25T09:13:35.824Z,1.40
2019-04-25T09:16:06.299Z,1.87
2019-04-25T09:18:36.987Z,2.10
2019-04-25T09:21:06.611Z,1.20
2019-04-25T09:23:36.513Z,1.63
2019-04-25T09:26:07.379Z,2.00
2019-04-25T09:28:38.952Z,2.30
2019-04-25T09:31:08.280Z,1.93
2019-04-25T09:33:37.812Z,2.20
2019-04-25T09:36:07.366Z,2.00
2019-04-25T09:38:37.020Z,1.60
2019-04-25T09:41:06.583Z,1.47
2019-04-25T09:43:36.171Z,1.77
2019-04-25T09:46:20.050Z,1.47
2019-04-25T09:49:07.395Z,1.40
2019-04-25T09:51:40.547Z,1.60
2019-04-25T09:54:27.905Z,1.40
2019-04-25T09:57:03.791Z,1.83
2019-04-25T09:59:35.240Z,1.30
2019-04-25T10:02:06.458Z,1.30
2019-04-25T10:04:36.917Z,1.43
2019-04-25T10:07:07.779Z,1.30
2019-04-25T10:09:37.439Z,1.30
2019-04-25T10:12:06.983Z,2.07
2019-04-25T10:14:59.232Z,2.07
2019-04-25T10:17:28.776Z,1.53
2019-04-25T10:19:58.319Z,1.67
2019-04-25T10:22:29.607Z,1.60
2019-04-25T10:25:00.799Z,2.03
2019-04-25T10:27:30.672Z,1.30
2019-04-25T10:30:00.331Z,1.30
2019-04-25T10:32:31.468Z,1.30
2019-04-25T10:35:01.007Z,1.70
2019-04-25T10:37:30.562Z,1.30
2019-04-25T10:40:00.195Z,1.63
2019-04-25T10:42:29.963Z,1.27
2019-04-25T10:44:59.521Z,0.90
2019-04-25T10:47:30.440Z,1.07
2019-04-25T10:50:00.026Z,0.90
2019-04-25T10:52:29.605Z,0.93
2019-04-25T10:54:59.204Z,1.10
2019-04-25T10:57:28.844Z,1.20
2019-04-25T11:00:06.151Z,1.07
2019-04-25T11:02:30.131Z,1.00
2019-04-25T11:05:08.989Z,1.13
2019-04-25T11:07:38.575Z,0.87
2019-04-25T11:10:08.673Z,1.20
2019-04-25T11:12:38.272Z,0.90
2019-04-25T11:15:08.267Z,0.60
2019-04-25T11:17:37.864Z,0.70
2019-04-25T11:20:07.988Z,0.80
2019-04-25T11:22:37.563Z,0.80
2019-04-25T11:25:07.266Z,0.90
2019-04-25T11:27:36.923Z,0.73
2019-04-25T11:30:10.824Z,0.90
2019-04-25T11:32:40.785Z,1.17
2019-04-25T11:35:13.870Z,1.13
2019-04-25T11:37:43.275Z,0.50
2019-04-25T11:40:23.567Z,0.80
2019-04-25T11:42:54.590Z,0.80
2019-04-25T11:45:24.404Z,0.70
2019-04-25T11:47:55.119Z,0.73
2019-04-25T11:50:25.363Z,0.90
2019-04-25T11:52:55.000Z,0.70
2019-04-25T11:55:24.907Z,0.87
2019-04-25T11:57:54.977Z,0.80
2019-04-25T12:00:28.215Z,0.50
2019-04-25T12:02:57.767Z,0.80
2019-04-25T12:05:27.611Z,0.83
2019-04-25T12:07:57.187Z,0.60
2019-04-25T12:10:27.696Z,0.57
2019-04-25T12:12:57.863Z,0.97
2019-04-25T12:15:27.841Z,0.50
2019-04-25T12:17:57.589Z,0.70
2019-04-25T12:20:27.434Z,0.93
2019-04-25T12:23:06.024Z,0.60
2019-04-25T12:25:28.193Z,0.67
2019-04-25T12:27:57.738Z,0.73
2019-04-25T12:30:37.157Z,1.10
2019-04-25T12:32:58.523Z,0.80
2019-04-25T12:35:28.095Z,1.30
2019-04-25T12:37:57.635Z,0.67
2019-04-25T12:40:27.187Z,0.90
2019-04-25T12:42:56.760Z,0.80
2019-04-25T12:45:34.302Z,0.70
2019-04-25T12:48:04.126Z,0.80
2019-04-25T12:50:33.904Z,0.70
2019-04-25T12:53:03.776Z,0.93
2019-04-25T12:55:34.227Z,0.80
2019-04-25T12:58:03.903Z,0.80
2019-04-25T13:00:34.236Z,0.63
2019-04-25T13:03:06.742Z,0.80
2019-04-25T13:05:35.060Z,0.57
2019-04-25T13:08:04.930Z,1.00
2019-04-25T13:10:34.991Z,0.80
2019-04-25T13:13:04.540Z,0.57
2019-04-25T13:15:34.863Z,1.53
2019-04-25T13:18:04.427Z,0.77
2019-04-25T13:20:33.970Z,0.80
2019-04-25T13:23:05.861Z,1.00
2019-04-25T13:25:35.575Z,1.17
2019-04-25T13:28:23.242Z,0.80
2019-04-25T13:31:12.982Z,0.83
2019-04-25T13:33:57.362Z,1.73
2019-04-25T13:36:27.131Z,0.90
2019-04-25T13:38:57.176Z,1.20
2019-04-25T13:41:28.807Z,0.97
2019-04-25T13:43:58.939Z,1.00
2019-04-25T13:46:29.879Z,1.40
2019-04-25T13:48:59.497Z,1.10
2019-04-25T13:51:29.036Z,1.13
2019-04-25T13:53:58.712Z,1.07
2019-04-25T13:56:28.717Z,1.33
2019-04-25T13:58:58.468Z,0.90
2019-04-25T14:01:28.026Z,1.10
2019-04-25T14:03:57.587Z,1.20
2019-04-25T14:06:28.352Z,1.57
2019-04-25T14:08:58.063Z,1.00
2019-04-25T14:11:28.002Z,1.20
2019-04-25T14:13:57.601Z,1.27
2019-04-25T14:16:37.377Z,1.30
2019-04-25T14:19:33.267Z,1.70
2019-04-25T14:22:04.412Z,1.70
2019-04-25T14:24:35.688Z,1.50
2019-04-25T14:27:05.316Z,1.37
2019-04-25T14:29:34.951Z,1.20
2019-04-25T14:32:06.300Z,1.30
2019-04-25T14:34:37.427Z,1.70
2019-04-25T14:37:07.004Z,1.37
2019-04-25T14:39:36.547Z,1.17
2019-04-25T14:42:06.083Z,1.50
2019-04-25T14:44:35.999Z,1.30
2019-04-25T14:47:05.563Z,1.30
2019-04-25T14:49:35.135Z,2.20
2019-04-25T14:52:04.711Z,1.60
2019-04-25T14:54:53.192Z,1.40
2019-04-25T14:57:29.716Z,1.37
2019-04-25T15:00:02.007Z,3.10
2019-04-25T15:02:32.210Z,1.70
2019-04-25T15:05:01.759Z,1.40
2019-04-25T15:07:31.338Z,1.30
2019-04-25T15:10:00.928Z,1.93
2019-04-25T15:12:30.477Z,1.23
2019-04-25T15:15:00.056Z,1.73
2019-04-25T15:17:29.629Z,1.60
2019-04-25T15:19:59.189Z,1.30
2019-04-25T15:22:28.735Z,2.03
2019-04-25T15:24:58.480Z,1.57
2019-04-25T15:27:28.051Z,1.60
2019-04-25T15:29:58.103Z,1.40
2019-04-25T15:32:31.031Z,2.30
2019-04-25T15:35:00.595Z,1.57
2019-04-25T15:37:41.145Z,1.90
2019-04-25T15:40:41.058Z,1.90
2019-04-25T15:43:19.933Z,1.80
2019-04-25T15:45:54.496Z,1.60
2019-04-25T15:48:25.170Z,1.80
2019-04-25T15:50:55.544Z,1.37
2019-04-25T15:53:25.255Z,1.60
2019-04-25T15:55:54.890Z,1.93
2019-04-25T15:58:25.313Z,1.30
2019-04-25T16:00:55.769Z,1.70
2019-04-25T16:03:25.627Z,2.03
2019-04-25T16:05:55.392Z,1.93
2019-04-25T16:08:24.952Z,2.90
2019-04-25T16:10:54.526Z,2.93
2019-04-25T16:13:24.095Z,1.77
2019-04-25T16:15:53.775Z,2.50
2019-04-25T16:18:23.436Z,2.23
2019-04-25T16:20:53.010Z,2.40
2019-04-25T16:23:22.604Z,2.40
2019-04-25T16:25:52.185Z,2.23
2019-04-25T16:28:21.760Z,2.00
2019-04-25T16:30:51.307Z,2.33
2019-04-25T16:33:21.084Z,2.67
2019-04-25T16:35:50.672Z,3.10
2019-04-25T16:38:22.059Z,3.27
2019-04-25T16:40:51.650Z,3.17
2019-04-25T16:43:25.203Z,3.03
2019-04-25T16:45:54.747Z,4.03
2019-04-25T16:48:24.327Z,2.70
2019-04-25T16:50:53.896Z,2.53
2019-04-25T16:53:23.464Z,7.60
2019-04-25T16:55:53.060Z,5.00
2019-04-25T16:58:23.390Z,3.37
2019-04-25T17:01:06.100Z,2.63
2019-04-25T17:03:36.143Z,2.57
2019-04-25T17:06:06.423Z,3.83
2019-04-25T17:08:37.664Z,2.40
2019-04-25T17:11:08.777Z,2.47
2019-04-25T17:13:44.124Z,2.20
2019-04-25T17:16:32.517Z,3.33
2019-04-25T17:19:05.940Z,2.67
2019-04-25T17:21:35.594Z,2.93
2019-04-25T17:24:05.749Z,2.70
2019-04-25T17:26:35.603Z,2.10
2019-04-25T17:29:08.571Z,3.50
2019-04-25T17:32:00.077Z,3.47
2019-04-25T17:34:43.342Z,4.63
2019-04-25T17:37:19.182Z,4.60
2019-04-25T17:39:51.909Z,3.07
2019-04-25T17:42:21.554Z,2.47
2019-04-25T17:44:51.210Z,3.03
2019-04-25T17:47:20.834Z,3.37
2019-04-25T17:49:50.442Z,2.50
2019-04-25T17:52:21.801Z,6.10
2019-04-25T17:54:51.506Z,4.70
2019-04-25T17:57:22.413Z,4.43
2019-04-25T17:59:52.063Z,3.87
2019-04-25T18:02:21.728Z,3.77
2019-04-25T18:04:51.288Z,3.13
2019-04-25T18:07:20.946Z,2.97
2019-04-25T18:09:50.554Z,3.33
2019-04-25T18:12:20.153Z,3.37
2019-04-25T18:14:50.801Z,3.57
2019-04-25T18:17:20.402Z,16.03
2019-04-25T18:19:58.404Z,11.27
2019-04-25T18:22:59.196Z,4.70
2019-04-25T18:25:56.929Z,4.40
2019-04-25T18:28:45.742Z,3.67
2019-04-25T18:31:15.622Z,3.13
2019-04-25T18:33:45.964Z,3.53
2019-04-25T18:36:36.086Z,3.07
2019-04-25T18:39:21.692Z,3.10
2019-04-25T18:41:59.991Z,3.43
2019-04-25T18:44:29.543Z,3.17
2019-04-25T18:46:59.083Z,3.80
2019-04-25T18:49:28.663Z,3.60
2019-04-25T18:52:02.695Z,4.13
2019-04-25T18:54:41.133Z,3.67
2019-04-25T18:57:32.334Z,3.90
2019-04-25T19:00:20.817Z,3.50
2019-04-25T19:03:05.637Z,3.20
2019-04-25T19:05:42.843Z,6.43
2019-04-25T19:08:12.425Z,5.63
2019-04-25T19:10:42.849Z,4.10
2019-04-25T19:13:13.295Z,3.80
2019-04-25T19:15:43.158Z,4.40
2019-04-25T19:18:14.423Z,6.77
2019-04-25T19:20:44.039Z,4.77
2019-04-25T19:23:13.577Z,3.67
2019-04-25T19:25:43.717Z,3.90
2019-04-25T19:28:13.426Z,4.13
2019-04-25T19:30:43.187Z,3.50
2019-04-25T19:33:12.777Z,3.67
2019-04-25T19:35:42.319Z,3.90
2019-04-25T19:38:11.934Z,3.13
2019-04-25T19:41:04.031Z,5.10
2019-04-25T19:43:55.362Z,4.30
2019-04-25T19:46:45.630Z,4.50
2019-04-25T19:49:15.221Z,4.47
2019-04-25T19:51:45.166Z,4.00
2019-04-25T19:54:15.028Z,4.70
2019-04-25T19:56:45.576Z,4.43
2019-04-25T19:59:15.120Z,4.43
2019-04-25T20:01:44.692Z,3.80
2019-04-25T20:04:45.181Z,11.30
2019-04-25T20:07:23.059Z,9.27
2019-04-25T20:10:19.734Z,5.03
2019-04-25T20:12:52.162Z,3.37
2019-04-25T20:15:22.076Z,3.33
2019-04-25T20:17:52.028Z,4.63
2019-04-25T20:20:21.639Z,3.60
2019-04-25T20:23:10.191Z,5.20
2019-04-25T20:25:39.791Z,3.70
2019-04-25T20:28:09.440Z,3.10
2019-04-25T20:30:38.995Z,3.53
2019-04-25T20:33:08.747Z,3.00
2019-04-25T20:35:57.410Z,3.10
2019-04-25T20:38:26.974Z,2.90
2019-04-25T20:40:56.600Z,2.87
2019-04-25T20:43:26.136Z,3.30
2019-04-25T20:45:56.518Z,2.93
2019-04-25T20:48:26.151Z,3.00
2019-04-25T20:50:56.564Z,3.33
2019-04-25T20:53:26.211Z,3.00
2019-04-25T20:55:55.771Z,3.07
2019-04-25T20:58:25.343Z,2.87
2019-04-25T21:00:57.939Z,3.83
2019-04-25T21:03:27.611Z,3.03
2019-04-25T21:06:05.172Z,3.50
2019-04-25T21:08:34.745Z,3.13
2019-04-25T21:11:04.807Z,2.90
2019-04-25T21:14:02.526Z,3.43
2019-04-25T21:17:09.683Z,3.10
2019-04-25T21:19:43.370Z,3.03
2019-04-25T21:22:12.935Z,3.07
2019-04-25T21:24:42.483Z,2.90
2019-04-25T21:27:12.065Z,3.13
2019-04-25T21:29:41.608Z,2.80
2019-04-25T21:32:11.159Z,3.37
2019-04-25T21:34:40.726Z,3.30
2019-04-25T21:37:10.676Z,2.77
2019-04-25T21:39:58.533Z,3.00
2019-04-25T21:42:39.451Z,3.63
2019-04-25T21:45:10.023Z,2.90
2019-04-25T21:47:39.574Z,3.60
2019-04-25T21:50:09.619Z,3.40
2019-04-25T21:52:39.311Z,3.13
2019-04-25T21:55:09.277Z,2.90
2019-04-25T21:57:39.375Z,3.53
2019-04-25T22:00:11.750Z,3.17
2019-04-25T22:02:41.637Z,3.10
2019-04-25T22:05:12.230Z,3.67
2019-04-25T22:07:42.170Z,3.20
2019-04-25T22:10:12.291Z,3.20
2019-04-25T22:12:41.934Z,2.93
2019-04-25T22:15:13.290Z,2.83
2019-04-25T22:17:43.069Z,3.70
2019-04-25T22:20:12.619Z,3.13
2019-04-25T22:22:42.456Z,3.00
2019-04-25T22:25:12.111Z,3.10
2019-04-25T22:27:41.771Z,2.60
2019-04-25T22:30:13.097Z,2.97
2019-04-25T22:32:53.796Z,2.93
2019-04-25T22:35:26.522Z,2.50
2019-04-25T22:37:56.058Z,2.97
2019-04-25T22:40:25.663Z,2.30
2019-04-25T22:42:56.143Z,2.77
2019-04-25T22:45:25.706Z,2.77
2019-04-25T22:47:57.013Z,3.50
2019-04-25T22:50:26.872Z,2.27
2019-04-25T22:52:56.477Z,2.37
2019-04-25T22:55:26.054Z,2.37
2019-04-25T22:57:55.618Z,2.70
2019-04-25T23:00:30.656Z,1.97
2019-04-25T23:03:05.606Z,2.27
2019-04-25T23:05:48.298Z,3.23
2019-04-25T23:08:18.047Z,2.47
2019-04-25T23:10:48.095Z,2.40
2019-04-25T23:13:17.675Z,2.03
2019-04-25T23:15:47.495Z,2.00
2019-04-25T23:18:17.343Z,2.30
2019-04-25T23:20:46.944Z,2.43
2019-04-25T23:23:16.596Z,3.07
2019-04-25T23:26:06.576Z,2.77
2019-04-25T23:28:39.994Z,2.87
2019-04-25T23:31:16.339Z,2.60
2019-04-25T23:33:46.044Z,2.57
2019-04-25T23:36:16.003Z,2.77
2019-04-25T23:38:45.684Z,2.60
2019-04-25T23:41:15.741Z,2.60
2019-04-25T23:43:47.061Z,2.60
2019-04-25T23:46:16.758Z,2.67
2019-04-25T23:48:46.361Z,2.53
2019-04-25T23:51:15.913Z,2.20
2019-04-25T23:53:45.806Z,2.70
2019-04-25T23:56:15.486Z,2.57
2019-04-25T23:58:45.415Z,2.40
